createdAt,value
2022-09-04T00:02:07.186Z,13.96
2022-09-04T00:04:44.527Z,14.02
2022-09-04T00:07:14.294Z,14.14
2022-09-04T00:10:09.806Z,13.90
2022-09-04T00:12:59.574Z,13.79
2022-09-04T00:15:35.605Z,13.89
2022-09-04T00:18:02.547Z,13.69
2022-09-04T00:20:34.251Z,13.88
2022-09-04T00:23:04.405Z,13.93
2022-09-04T00:25:50.806Z,13.78
2022-09-04T00:28:25.575Z,13.67
2022-09-04T00:30:58.443Z,13.71
2022-09-04T00:33:54.663Z,13.66
2022-09-04T00:36:22.763Z,13.47
2022-09-04T00:38:54.198Z,13.67
2022-09-04T00:41:39.361Z,13.53
2022-09-04T00:44:24.714Z,13.37
2022-09-04T00:47:20.308Z,13.29
2022-09-04T00:49:53.127Z,13.42
2022-09-04T00:52:38.203Z,13.14
2022-09-04T00:55:05.294Z,13.25
2022-09-04T00:57:32.139Z,13.19
2022-09-04T01:00:09.022Z,13.18
2022-09-04T01:02:36.230Z,13.01
2022-09-04T01:05:19.843Z,13.07
2022-09-04T01:07:56.752Z,13.12
2022-09-04T01:10:56.479Z,13.08
2022-09-04T01:13:42.351Z,12.78
2022-09-04T01:16:31.562Z,12.91
2022-09-04T01:18:58.632Z,12.91
2022-09-04T01:21:57.856Z,13.01
2022-09-04T01:24:25.023Z,12.95
2022-09-04T01:27:10.273Z,12.82
2022-09-04T01:29:58.161Z,12.89
2022-09-04T01:32:43.797Z,12.99
2022-09-04T01:35:29.463Z,13.03
2022-09-04T01:38:03.198Z,12.98
2022-09-04T01:40:35.502Z,12.94
2022-09-04T01:43:06.082Z,12.87
2022-09-04T01:45:53.121Z,12.75
2022-09-04T01:48:23.317Z,12.76
2022-09-04T01:50:56.605Z,12.71
2022-09-04T01:53:28.182Z,12.59
2022-09-04T01:56:21.414Z,12.64
2022-09-04T01:58:54.983Z,12.78
2022-09-04T02:01:42.451Z,12.80
2022-09-04T02:04:12.810Z,12.83
2022-09-04T02:06:50.567Z,12.74
2022-09-04T02:09:29.648Z,12.53
2022-09-04T02:12:03.230Z,12.51
2022-09-04T02:14:42.997Z,12.56
2022-09-04T02:17:12.361Z,12.52
2022-09-04T02:19:42.181Z,12.52
2022-09-04T02:22:09.022Z,12.47
2022-09-04T02:24:36.075Z,12.44
2022-09-04T02:27:08.806Z,12.42
2022-09-04T02:29:48.880Z,12.37
2022-09-04T02:32:18.806Z,12.19
2022-09-04T02:34:48.528Z,12.22
2022-09-04T02:37:20.662Z,12.27
2022-09-04T02:39:56.689Z,12.06
2022-09-04T02:42:32.415Z,12.16
2022-09-04T02:45:30.347Z,12.18
2022-09-04T02:48:13.939Z,12.22
2022-09-04T02:51:01.211Z,12.16
2022-09-04T02:53:46.637Z,11.97
2022-09-04T02:56:16.713Z,11.93
2022-09-04T02:58:44.318Z,11.99
2022-09-04T03:01:22.652Z,11.96
2022-09-04T03:04:16.085Z,11.93
2022-09-04T03:06:55.531Z,11.93
2022-09-04T03:09:29.274Z,11.87
2022-09-04T03:12:00.693Z,11.91
2022-09-04T03:14:36.181Z,11.84
2022-09-04T03:17:03.099Z,11.82
2022-09-04T03:19:48.939Z,11.76
2022-09-04T03:22:19.210Z,11.68
2022-09-04T03:24:46.182Z,11.58
2022-09-04T03:27:14.882Z,11.43
2022-09-04T03:29:51.354Z,11.47
2022-09-04T03:32:18.429Z,11.47
2022-09-04T03:34:48.494Z,11.58
2022-09-04T03:37:15.359Z,11.61
2022-09-04T03:39:42.758Z,11.55
2022-09-04T03:42:09.691Z,11.51
2022-09-04T03:44:36.545Z,11.53
2022-09-04T03:47:27.075Z,11.51
2022-09-04T03:50:12.360Z,11.48
2022-09-04T03:52:39.503Z,11.57
2022-09-04T03:55:33.693Z,11.54
2022-09-04T03:58:19.198Z,11.50
2022-09-04T04:01:13.625Z,11.37
2022-09-04T04:03:59.546Z,11.37
2022-09-04T04:06:26.423Z,11.31
2022-09-04T04:08:59.370Z,11.33
2022-09-04T04:11:43.685Z,11.26
2022-09-04T04:14:30.973Z,11.23
2022-09-04T04:17:20.300Z,11.16
2022-09-04T04:20:04.704Z,11.06
2022-09-04T04:22:45.233Z,11.06
2022-09-04T04:25:27.448Z,11.00
2022-09-04T04:27:58.228Z,11.04
2022-09-04T04:30:26.409Z,11.01
2022-09-04T04:32:56.757Z,10.95
2022-09-04T04:35:35.967Z,11.00
2022-09-04T04:38:06.136Z,11.01
2022-09-04T04:40:42.215Z,11.03
2022-09-04T04:43:29.527Z,11.02
2022-09-04T04:46:15.434Z,11.04
2022-09-04T04:49:01.310Z,11.06
2022-09-04T04:51:40.853Z,11.10
2022-09-04T04:54:20.455Z,11.09
2022-09-04T04:56:54.136Z,11.15
2022-09-04T04:59:24.623Z,11.14
2022-09-04T05:01:57.932Z,11.14
2022-09-04T05:04:30.358Z,11.18
2022-09-04T05:07:06.782Z,11.21
2022-09-04T05:09:40.354Z,11.28
2022-09-04T05:12:33.662Z,11.30
2022-09-04T05:15:10.267Z,11.31
2022-09-04T05:17:55.717Z,11.43
2022-09-04T05:20:50.526Z,11.54
2022-09-04T05:23:24.939Z,11.74
2022-09-04T05:26:08.101Z,11.98
2022-09-04T05:28:50.260Z,12.21
2022-09-04T05:31:25.312Z,12.57
2022-09-04T05:34:04.452Z,12.89
2022-09-04T05:36:37.731Z,13.26
2022-09-04T05:39:10.545Z,13.62
2022-09-04T05:41:43.526Z,13.99
2022-09-04T05:44:10.363Z,14.28
2022-09-04T05:46:55.965Z,14.56
2022-09-04T05:49:31.936Z,14.86
2022-09-04T05:52:17.570Z,15.08
2022-09-04T05:55:04.902Z,15.23
2022-09-04T05:57:41.226Z,15.47
2022-09-04T06:00:08.395Z,15.65
2022-09-04T06:03:05.250Z,15.85
2022-09-04T06:05:39.987Z,15.87
2022-09-04T06:08:32.814Z,16.03
2022-09-04T06:11:38.519Z,16.06
2022-09-04T06:14:24.099Z,15.98
2022-09-04T06:16:54.245Z,15.88
2022-09-04T06:19:36.126Z,16.01
2022-09-04T06:22:26.347Z,16.20
2022-09-04T06:25:09.270Z,15.78
2022-09-04T06:27:56.481Z,15.94
2022-09-04T06:30:26.433Z,16.37
2022-09-04T06:33:19.965Z,16.63
2022-09-04T06:35:47.331Z,16.71
2022-09-04T06:38:14.708Z,17.09
2022-09-04T06:41:00.474Z,17.36
2022-09-04T06:43:36.562Z,17.66
2022-09-04T06:46:11.279Z,17.88
2022-09-04T06:49:02.034Z,18.08
2022-09-04T06:51:37.954Z,17.99
2022-09-04T06:54:15.723Z,18.54
2022-09-04T06:57:01.585Z,18.87
2022-09-04T06:59:47.445Z,18.96
2022-09-04T07:02:28.978Z,19.16
2022-09-04T07:04:59.218Z,19.60
2022-09-04T07:07:32.893Z,20.17
2022-09-04T07:10:05.140Z,20.62
2022-09-04T07:12:43.321Z,21.14
2022-09-04T07:15:18.134Z,21.02
2022-09-04T07:18:06.924Z,21.29
2022-09-04T07:20:52.798Z,21.70
2022-09-04T07:23:36.730Z,22.48
2022-09-04T07:26:06.562Z,22.71
2022-09-04T07:28:33.522Z,23.12
2022-09-04T07:31:18.326Z,23.26
2022-09-04T07:33:46.017Z,23.66
2022-09-04T07:36:36.020Z,24.32
2022-09-04T07:39:21.861Z,24.66
2022-09-04T07:41:56.776Z,25.49
2022-09-04T07:44:24.394Z,25.53
2022-09-04T07:47:13.551Z,26.03
2022-09-04T07:49:43.847Z,26.42
2022-09-04T07:52:23.022Z,27.24
2022-09-04T07:55:05.183Z,27.83
2022-09-04T07:57:38.224Z,28.42
2022-09-04T08:00:13.951Z,28.99
2022-09-04T08:02:43.566Z,28.87
2022-09-04T08:05:11.519Z,28.97
2022-09-04T08:07:38.779Z,29.27
2022-09-04T08:10:11.523Z,29.06
2022-09-04T08:12:42.306Z,29.60
2022-09-04T08:15:10.562Z,29.78
2022-09-04T08:17:43.246Z,29.70
2022-09-04T08:20:29.235Z,29.84
2022-09-04T08:23:02.268Z,30.20
2022-09-04T08:25:33.093Z,30.44
2022-09-04T08:28:35.594Z,29.99
2022-09-04T08:31:09.380Z,30.25
2022-09-04T08:33:53.303Z,30.68
2022-09-04T08:36:25.830Z,30.66
2022-09-04T08:38:58.439Z,31.12
2022-09-04T08:41:34.956Z,31.12
2022-09-04T08:44:20.683Z,31.60
2022-09-04T08:46:59.613Z,31.98
2022-09-04T08:49:35.545Z,32.32
2022-09-04T08:52:08.430Z,32.49
2022-09-04T08:54:35.796Z,32.73
2022-09-04T08:57:17.892Z,32.52
2022-09-04T09:00:00.073Z,32.93
2022-09-04T09:02:27.002Z,33.06
2022-09-04T09:05:13.061Z,33.57
2022-09-04T09:08:06.798Z,32.79
2022-09-04T09:10:33.874Z,31.91
2022-09-04T09:13:20.952Z,31.92
2022-09-04T09:15:48.030Z,31.37
2022-09-04T09:18:18.145Z,31.94
2022-09-04T09:21:01.388Z,31.71
2022-09-04T09:23:28.875Z,31.50
2022-09-04T09:26:06.817Z,30.90
2022-09-04T09:28:52.706Z,30.42
2022-09-04T09:31:38.463Z,30.78
2022-09-04T09:34:24.270Z,30.56
2022-09-04T09:37:01.902Z,30.43
2022-09-04T09:39:29.268Z,30.21
2022-09-04T09:41:59.924Z,30.12
2022-09-04T09:44:45.747Z,30.02
2022-09-04T09:47:28.313Z,30.07
2022-09-04T09:49:59.325Z,29.95
2022-09-04T09:52:28.715Z,29.31
2022-09-04T09:55:14.256Z,29.43
2022-09-04T09:57:41.413Z,29.53
2022-09-04T10:00:10.949Z,28.58
2022-09-04T10:02:43.835Z,28.61
2022-09-04T10:05:13.754Z,28.82
2022-09-04T10:07:44.309Z,28.88
2022-09-04T10:10:36.279Z,28.91
2022-09-04T10:13:06.247Z,28.61
2022-09-04T10:15:39.251Z,28.24
2022-09-04T10:18:26.856Z,28.28
2022-09-04T10:21:00.348Z,28.35
2022-09-04T10:23:30.538Z,28.28
2022-09-04T10:26:15.673Z,27.67
2022-09-04T10:29:01.607Z,28.17
2022-09-04T10:31:34.729Z,28.49
2022-09-04T10:34:10.814Z,28.54
2022-09-04T10:36:46.638Z,28.46
2022-09-04T10:39:55.550Z,28.72
2022-09-04T10:42:31.881Z,28.61
2022-09-04T10:45:07.942Z,28.18
2022-09-04T10:47:47.545Z,28.26
2022-09-04T10:50:33.285Z,28.27
2022-09-04T10:53:31.839Z,28.38
2022-09-04T10:56:09.348Z,28.52
2022-09-04T10:58:39.714Z,28.31
2022-09-04T11:01:19.079Z,28.26
2022-09-04T11:03:58.139Z,28.07
2022-09-04T11:06:34.260Z,28.34
2022-09-04T11:09:19.869Z,29.09
2022-09-04T11:11:53.005Z,29.16
2022-09-04T11:14:42.710Z,28.88
2022-09-04T11:17:30.590Z,26.83
2022-09-04T11:20:24.653Z,26.52
2022-09-04T11:23:10.413Z,28.14
2022-09-04T11:25:57.121Z,28.38
2022-09-04T11:28:44.466Z,29.16
2022-09-04T11:31:17.511Z,29.62
2022-09-04T11:34:03.245Z,29.89
2022-09-04T11:36:35.497Z,28.65
2022-09-04T11:39:21.373Z,29.18
2022-09-04T11:42:08.505Z,29.23
2022-09-04T11:44:41.179Z,30.03
2022-09-04T11:47:23.531Z,30.97
2022-09-04T11:49:50.419Z,30.52
2022-09-04T11:52:41.946Z,28.86
2022-09-04T11:55:24.918Z,29.69
2022-09-04T11:58:03.533Z,30.39
2022-09-04T12:00:43.086Z,30.88
2022-09-04T12:03:29.848Z,30.71
2022-09-04T12:06:35.260Z,31.00
2022-09-04T12:09:02.583Z,30.31
2022-09-04T12:11:47.959Z,30.16
2022-09-04T12:14:30.287Z,30.38
2022-09-04T12:17:16.181Z,29.90
2022-09-04T12:20:06.148Z,29.29
2022-09-04T12:22:43.547Z,29.78
2022-09-04T12:25:10.544Z,29.71
2022-09-04T12:27:52.709Z,29.62
2022-09-04T12:30:21.614Z,28.71
2022-09-04T12:32:51.465Z,27.98
2022-09-04T12:35:21.282Z,26.94
2022-09-04T12:37:48.534Z,26.21
2022-09-04T12:40:28.527Z,25.49
2022-09-04T12:43:05.201Z,24.83
2022-09-04T12:45:41.258Z,24.45
2022-09-04T12:48:21.904Z,24.31
2022-09-04T12:51:05.729Z,23.71
2022-09-04T12:53:44.562Z,23.61
2022-09-04T12:56:26.542Z,23.29
2022-09-04T12:58:59.971Z,23.52
2022-09-04T13:01:38.210Z,23.20
2022-09-04T13:04:08.504Z,23.38
2022-09-04T13:06:35.383Z,23.17
2022-09-04T13:09:02.246Z,23.21
2022-09-04T13:11:35.395Z,23.24
2022-09-04T13:14:14.599Z,23.25
2022-09-04T13:16:57.628Z,23.18
2022-09-04T13:19:46.871Z,23.04
2022-09-04T13:22:32.573Z,23.04
2022-09-04T13:25:08.760Z,23.08
2022-09-04T13:28:03.311Z,23.09
2022-09-04T13:30:31.118Z,23.22
2022-09-04T13:33:00.918Z,22.97
2022-09-04T13:35:41.421Z,23.21
2022-09-04T13:38:18.947Z,23.14
2022-09-04T13:41:00.428Z,22.99
2022-09-04T13:43:27.567Z,23.21
2022-09-04T13:45:55.709Z,23.17
2022-09-04T13:48:32.940Z,22.82
2022-09-04T13:51:04.229Z,22.59
2022-09-04T13:53:59.177Z,22.30
2022-09-04T13:56:42.352Z,22.35
2022-09-04T13:59:15.038Z,22.32
2022-09-04T14:01:49.540Z,22.02
2022-09-04T14:04:26.667Z,21.92
2022-09-04T14:07:02.582Z,22.01
2022-09-04T14:09:34.338Z,21.82
2022-09-04T14:12:20.176Z,21.60
2022-09-04T14:14:55.902Z,21.63
2022-09-04T14:17:28.115Z,21.60
2022-09-04T14:20:06.631Z,21.63
2022-09-04T14:22:33.831Z,21.72
2022-09-04T14:25:01.178Z,21.58
2022-09-04T14:27:44.334Z,21.63
2022-09-04T14:30:17.683Z,21.62
2022-09-04T14:33:07.777Z,21.96
2022-09-04T14:35:42.565Z,21.86
2022-09-04T14:38:24.808Z,22.26
2022-09-04T14:40:56.743Z,22.40
2022-09-04T14:43:32.748Z,22.13
2022-09-04T14:46:06.964Z,22.11
2022-09-04T14:48:40.588Z,22.18
2022-09-04T14:51:13.342Z,21.91
2022-09-04T14:53:45.970Z,21.80
2022-09-04T14:56:13.234Z,21.74
2022-09-04T14:58:50.486Z,21.61
2022-09-04T15:01:19.029Z,21.61
2022-09-04T15:03:56.612Z,21.57
2022-09-04T15:06:31.952Z,21.66
2022-09-04T15:09:19.298Z,21.35
2022-09-04T15:11:48.744Z,21.25
2022-09-04T15:14:28.535Z,21.27
2022-09-04T15:17:00.208Z,21.01
2022-09-04T15:19:46.835Z,21.01
2022-09-04T15:22:32.627Z,21.03
2022-09-04T15:25:17.896Z,21.02
2022-09-04T15:27:47.844Z,20.95
2022-09-04T15:30:19.900Z,21.11
2022-09-04T15:32:48.342Z,21.05
2022-09-04T15:35:23.668Z,20.93
2022-09-04T15:37:52.697Z,21.06
2022-09-04T15:40:22.365Z,21.09
2022-09-04T15:42:58.916Z,21.15
2022-09-04T15:45:31.950Z,21.15
2022-09-04T15:47:58.888Z,20.89
2022-09-04T15:50:27.887Z,20.92
2022-09-04T15:53:12.163Z,20.95
2022-09-04T15:55:41.335Z,20.84
2022-09-04T15:58:08.686Z,20.83
2022-09-04T16:00:38.283Z,20.76
2022-09-04T16:03:16.888Z,20.63
2022-09-04T16:06:02.916Z,20.83
2022-09-04T16:08:37.834Z,20.66
2022-09-04T16:11:05.050Z,20.63
2022-09-04T16:13:42.994Z,20.60
2022-09-04T16:16:14.112Z,20.65
2022-09-04T16:18:48.188Z,20.73
2022-09-04T16:21:23.125Z,20.63
2022-09-04T16:23:51.006Z,20.56
2022-09-04T16:26:19.672Z,20.27
2022-09-04T16:28:53.373Z,20.36
2022-09-04T16:31:35.066Z,20.31
2022-09-04T16:34:06.652Z,20.38
2022-09-04T16:36:40.247Z,20.18
2022-09-04T16:39:14.997Z,20.15
2022-09-04T16:41:42.947Z,20.13
2022-09-04T16:44:25.624Z,20.06
2022-09-04T16:47:04.904Z,19.95
2022-09-04T16:49:42.046Z,19.90
2022-09-04T16:52:27.183Z,19.99
2022-09-04T16:54:55.896Z,19.81
2022-09-04T16:57:28.996Z,19.71
2022-09-04T17:00:24.771Z,19.69
2022-09-04T17:02:59.496Z,19.68
2022-09-04T17:05:36.401Z,19.62
2022-09-04T17:08:22.762Z,19.51
2022-09-04T17:10:58.516Z,19.51
2022-09-04T17:13:39.121Z,19.49
2022-09-04T17:16:20.636Z,19.24
2022-09-04T17:18:54.049Z,19.35
2022-09-04T17:28:24.850Z,19.27
2022-09-04T17:29:08.630Z,19.26
2022-09-04T17:29:18.567Z,19.23
2022-09-04T17:30:52.775Z,19.12
2022-09-04T17:40:36.203Z,19.12
2022-09-04T17:40:38.040Z,19.00
2022-09-04T17:40:39.217Z,18.90
2022-09-04T17:42:24.760Z,18.83
2022-09-04T17:44:54.331Z,18.96
2022-09-04T17:47:33.177Z,18.86
2022-09-04T17:50:02.585Z,18.65
2022-09-04T17:52:34.142Z,18.53
2022-09-04T17:55:12.840Z,18.50
2022-09-04T17:57:42.716Z,18.43
2022-09-04T18:00:20.628Z,18.47
2022-09-04T18:03:06.564Z,18.46
2022-09-04T18:05:42.572Z,18.33
2022-09-04T18:08:30.350Z,18.30
2022-09-04T18:11:01.163Z,18.22
2022-09-04T18:13:38.811Z,18.15
2022-09-04T18:16:16.982Z,18.00
2022-09-04T18:18:52.508Z,18.05
2022-09-04T18:21:42.106Z,17.99
2022-09-04T18:24:13.578Z,17.92
2022-09-04T18:26:48.474Z,17.88
2022-09-04T18:30:57.264Z,17.84
2022-09-04T18:37:06.969Z,17.76
2022-09-04T18:37:23.208Z,17.79
2022-09-04T18:37:56.246Z,17.68
2022-09-04T18:40:39.489Z,17.57
2022-09-04T18:50:25.044Z,17.50
2022-09-04T18:50:35.600Z,17.44
2022-09-04T18:50:36.801Z,17.36
2022-09-04T18:52:22.606Z,17.33
2022-09-04T18:54:57.589Z,17.32
2022-09-04T18:57:30.742Z,17.26
2022-09-04T19:00:13.032Z,17.20
2022-09-04T19:03:03.298Z,17.07
2022-09-04T19:05:44.943Z,17.03
2022-09-04T19:08:29.734Z,16.97
2022-09-04T19:11:01.882Z,16.95
2022-09-04T19:13:53.563Z,16.88
2022-09-04T19:16:38.509Z,16.87
2022-09-04T19:19:17.591Z,16.77
2022-09-04T19:21:58.414Z,16.68
2022-09-04T19:24:34.759Z,16.66
2022-09-04T19:27:26.659Z,16.57
2022-09-04T19:30:18.881Z,16.46
2022-09-04T19:32:58.103Z,16.46
2022-09-04T19:35:37.714Z,16.35
2022-09-04T19:45:47.553Z,16.43
2022-09-04T19:46:00.355Z,16.45
2022-09-04T19:46:07.205Z,16.42
2022-09-04T19:47:28.935Z,16.46
2022-09-04T19:53:10.091Z,16.42
2022-09-04T19:53:30.585Z,16.33
2022-09-04T19:55:48.464Z,16.17
2022-09-04T19:58:29.592Z,16.09
2022-09-04T20:01:02.386Z,15.97
2022-09-04T20:03:36.550Z,15.89
2022-09-04T20:06:21.894Z,15.86
2022-09-04T20:08:58.560Z,15.81
2022-09-04T20:11:35.550Z,15.73
2022-09-04T20:14:24.470Z,15.67
2022-09-04T20:16:55.670Z,15.70
2022-09-04T20:19:37.523Z,15.67
2022-09-04T20:22:16.083Z,15.63
2022-09-04T20:24:58.440Z,15.55
2022-09-04T20:27:35.216Z,15.47
2022-09-04T20:30:07.653Z,15.36
2022-09-04T20:32:38.437Z,15.24
2022-09-04T20:35:14.052Z,15.14
2022-09-04T20:37:44.655Z,15.06
2022-09-04T20:40:36.208Z,14.93
2022-09-04T20:43:03.120Z,14.89
2022-09-04T20:48:32.485Z,14.81
2022-09-04T20:52:58.419Z,14.70
2022-09-04T20:53:05.513Z,14.75
2022-09-04T20:54:23.334Z,14.80
2022-09-04T21:00:14.718Z,14.80
2022-09-04T21:03:08.666Z,14.88
2022-09-04T21:03:28.783Z,14.88
2022-09-04T21:06:10.978Z,14.85
2022-09-04T21:08:38.021Z,14.77
2022-09-04T21:11:38.906Z,14.68
2022-09-04T21:14:00.792Z,14.65
2022-09-04T21:16:27.689Z,14.57
2022-09-04T21:19:27.747Z,14.50
2022-09-04T21:21:57.105Z,14.50
2022-09-04T21:24:39.328Z,14.48
2022-09-04T21:27:06.593Z,14.48
2022-09-04T21:29:50.039Z,14.46
2022-09-04T21:32:33.633Z,14.50
2022-09-04T21:35:20.811Z,14.44
2022-09-04T21:37:48.058Z,14.48
2022-09-04T21:40:51.697Z,14.29
2022-09-04T21:43:19.660Z,14.47
2022-09-04T21:46:07.724Z,14.49
2022-09-04T21:48:52.376Z,14.54
2022-09-04T21:51:38.343Z,14.47
2022-09-04T21:54:13.090Z,14.50
2022-09-04T22:02:30.593Z,14.46
2022-09-04T22:02:46.082Z,14.54
2022-09-04T22:03:02.146Z,14.52
2022-09-04T22:05:29.965Z,14.41
2022-09-04T22:12:36.860Z,14.27
2022-09-04T22:13:39.303Z,14.34
2022-09-04T22:14:09.950Z,14.47
2022-09-04T22:16:46.064Z,14.47
2022-09-04T22:19:17.021Z,14.47
2022-09-04T22:22:03.820Z,14.48
2022-09-04T22:24:31.229Z,14.26
2022-09-04T22:27:18.267Z,14.27
2022-09-04T22:29:51.303Z,14.18
2022-09-04T22:32:21.457Z,14.09
2022-09-04T22:35:07.831Z,14.23
2022-09-04T22:37:35.340Z,14.30
2022-09-04T22:40:23.638Z,14.35
2022-09-04T22:42:56.043Z,14.30
2022-09-04T22:45:26.066Z,14.33
2022-09-04T22:48:10.115Z,14.19
2022-09-04T22:50:56.126Z,14.05
2022-09-04T22:53:42.898Z,14.23
2022-09-04T22:56:24.224Z,14.19
2022-09-04T22:58:55.598Z,14.08
2022-09-04T23:02:02.996Z,13.88
2022-09-04T23:04:50.340Z,13.89
2022-09-04T23:13:04.739Z,13.97
2022-09-04T23:13:48.166Z,14.02
2022-09-04T23:13:56.228Z,13.91
2022-09-04T23:16:28.307Z,13.95
2022-09-04T23:21:59.766Z,13.81
2022-09-04T23:26:43.387Z,13.95
2022-09-04T23:26:49.609Z,13.86
2022-09-04T23:28:27.076Z,13.73
2022-09-04T23:31:10.871Z,13.73
2022-09-04T23:33:56.488Z,13.67
2022-09-04T23:37:00.623Z,13.69
2022-09-04T23:40:06.768Z,13.67
2022-09-04T23:43:07.802Z,13.59
2022-09-04T23:46:11.741Z,13.57
2022-09-04T23:49:13.919Z,13.41
2022-09-04T23:52:12.160Z,13.30
2022-09-04T23:55:20.742Z,13.37
2022-09-04T23:58:33.732Z,13.37
